sensor_id;sensor_type;location;lat;lon;timestamp;P1;durP1;ratioP1;P2;durP2;ratioP2
68310;SDS011;55157;51.036;17.058;2023-11-22T00:00:49;45.13;;;32.80;;
68310;SDS011;55157;51.036;17.058;2023-11-22T00:03:15;50.25;;;34.40;;
68310;SDS011;55157;51.036;17.058;2023-11-22T00:05:40;45.75;;;34.50;;
68310;SDS011;55157;51.036;17.058;2023-11-22T00:08:05;47.22;;;33.80;;
68310;SDS011;55157;51.036;17.058;2023-11-22T00:10:30;49.47;;;34.38;;
68310;SDS011;55157;51.036;17.058;2023-11-22T00:12:57;50.10;;;34.95;;
68310;SDS011;55157;51.036;17.058;2023-11-22T00:15:22;53.25;;;36.47;;
68310;SDS011;55157;51.036;17.058;2023-11-22T00:17:48;49.88;;;35.40;;
68310;SDS011;55157;51.036;17.058;2023-11-22T00:20:13;47.35;;;33.20;;
68310;SDS011;55157;51.036;17.058;2023-11-22T00:22:38;50.55;;;33.72;;
68310;SDS011;55157;51.036;17.058;2023-11-22T00:25:04;46.65;;;33.80;;
68310;SDS011;55157;51.036;17.058;2023-11-22T00:27:29;48.50;;;34.45;;
68310;SDS011;55157;51.036;17.058;2023-11-22T00:29:56;46.17;;;34.35;;
68310;SDS011;55157;51.036;17.058;2023-11-22T00:32:21;48.15;;;34.20;;
68310;SDS011;55157;51.036;17.058;2023-11-22T00:34:46;48.05;;;34.63;;
68310;SDS011;55157;51.036;17.058;2023-11-22T00:37:11;46.90;;;34.47;;
68310;SDS011;55157;51.036;17.058;2023-11-22T00:39:37;46.67;;;33.30;;
68310;SDS011;55157;51.036;17.058;2023-11-22T00:42:02;51.47;;;34.75;;
68310;SDS011;55157;51.036;17.058;2023-11-22T00:44:27;46.53;;;32.33;;
68310;SDS011;55157;51.036;17.058;2023-11-22T00:46:54;47.38;;;33.00;;
68310;SDS011;55157;51.036;17.058;2023-11-22T00:49:19;50.70;;;34.25;;
68310;SDS011;55157;51.036;17.058;2023-11-22T00:51:44;48.25;;;33.42;;
68310;SDS011;55157;51.036;17.058;2023-11-22T00:54:10;43.97;;;31.02;;
68310;SDS011;55157;51.036;17.058;2023-11-22T00:56:35;42.08;;;31.13;;
68310;SDS011;55157;51.036;17.058;2023-11-22T00:59:00;46.92;;;33.78;;
68310;SDS011;55157;51.036;17.058;2023-11-22T01:01:26;40.97;;;30.60;;
68310;SDS011;55157;51.036;17.058;2023-11-22T01:03:52;44.78;;;32.17;;
68310;SDS011;55157;51.036;17.058;2023-11-22T01:06:18;39.90;;;30.17;;
68310;SDS011;55157;51.036;17.058;2023-11-22T01:08:43;41.90;;;31.30;;
68310;SDS011;55157;51.036;17.058;2023-11-22T01:11:08;46.13;;;32.00;;
68310;SDS011;55157;51.036;17.058;2023-11-22T01:13:33;38.42;;;30.33;;
68310;SDS011;55157;51.036;17.058;2023-11-22T01:15:59;44.97;;;31.92;;
68310;SDS011;55157;51.036;17.058;2023-11-22T01:18:24;47.15;;;32.15;;
68310;SDS011;55157;51.036;17.058;2023-11-22T01:20:50;42.47;;;30.67;;
68310;SDS011;55157;51.036;17.058;2023-11-22T01:23:16;43.75;;;30.98;;
68310;SDS011;55157;51.036;17.058;2023-11-22T01:25:41;48.13;;;31.65;;
68310;SDS011;55157;51.036;17.058;2023-11-22T01:28:06;47.90;;;32.65;;
68310;SDS011;55157;51.036;17.058;2023-11-22T01:30:31;42.63;;;29.58;;
68310;SDS011;55157;51.036;17.058;2023-11-22T01:32:57;43.85;;;29.17;;
68310;SDS011;55157;51.036;17.058;2023-11-22T01:35:22;42.10;;;28.90;;
68310;SDS011;55157;51.036;17.058;2023-11-22T01:37:49;40.45;;;27.65;;
68310;SDS011;55157;51.036;17.058;2023-11-22T01:40:14;35.30;;;26.80;;
68310;SDS011;55157;51.036;17.058;2023-11-22T01:42:39;42.78;;;30.70;;
68310;SDS011;55157;51.036;17.058;2023-11-22T01:45:05;41.65;;;28.80;;
68310;SDS011;55157;51.036;17.058;2023-11-22T01:47:30;43.70;;;28.45;;
68310;SDS011;55157;51.036;17.058;2023-11-22T01:49:55;40.00;;;27.38;;
68310;SDS011;55157;51.036;17.058;2023-11-22T01:52:21;40.65;;;27.52;;
68310;SDS011;55157;51.036;17.058;2023-11-22T01:54:48;46.00;;;28.90;;
68310;SDS011;55157;51.036;17.058;2023-11-22T01:57:13;38.80;;;27.10;;
68310;SDS011;55157;51.036;17.058;2023-11-22T01:59:39;48.03;;;28.23;;
68310;SDS011;55157;51.036;17.058;2023-11-22T02:02:04;38.35;;;27.23;;
68310;SDS011;55157;51.036;17.058;2023-11-22T02:04:30;39.97;;;27.92;;
68310;SDS011;55157;51.036;17.058;2023-11-22T02:06:55;37.90;;;26.13;;
68310;SDS011;55157;51.036;17.058;2023-11-22T02:09:20;44.08;;;28.05;;
68310;SDS011;55157;51.036;17.058;2023-11-22T02:11:47;39.83;;;27.55;;
68310;SDS011;55157;51.036;17.058;2023-11-22T02:14:12;43.20;;;27.23;;
68310;SDS011;55157;51.036;17.058;2023-11-22T02:16:37;40.28;;;26.77;;
68310;SDS011;55157;51.036;17.058;2023-11-22T02:19:03;45.08;;;29.55;;
68310;SDS011;55157;51.036;17.058;2023-11-22T02:21:30;44.92;;;27.02;;
68310;SDS011;55157;51.036;17.058;2023-11-22T02:23:57;36.83;;;24.40;;
68310;SDS011;55157;51.036;17.058;2023-11-22T02:26:23;39.80;;;26.05;;
68310;SDS011;55157;51.036;17.058;2023-11-22T02:28:48;36.47;;;24.92;;
68310;SDS011;55157;51.036;17.058;2023-11-22T02:31:13;39.42;;;25.88;;
68310;SDS011;55157;51.036;17.058;2023-11-22T02:33:39;38.80;;;26.40;;
68310;SDS011;55157;51.036;17.058;2023-11-22T02:36:04;34.58;;;24.73;;
68310;SDS011;55157;51.036;17.058;2023-11-22T02:38:30;38.83;;;26.08;;
68310;SDS011;55157;51.036;17.058;2023-11-22T02:40:56;34.20;;;24.80;;
68310;SDS011;55157;51.036;17.058;2023-11-22T02:43:22;35.83;;;24.52;;
68310;SDS011;55157;51.036;17.058;2023-11-22T02:45:47;44.42;;;24.65;;
68310;SDS011;55157;51.036;17.058;2023-11-22T02:48:12;38.25;;;25.33;;
68310;SDS011;55157;51.036;17.058;2023-11-22T02:50:37;36.00;;;24.85;;
68310;SDS011;55157;51.036;17.058;2023-11-22T02:53:03;36.75;;;25.92;;
68310;SDS011;55157;51.036;17.058;2023-11-22T02:55:28;37.28;;;24.58;;
68310;SDS011;55157;51.036;17.058;2023-11-22T02:57:55;35.97;;;25.45;;
68310;SDS011;55157;51.036;17.058;2023-11-22T03:00:20;35.80;;;24.35;;
68310;SDS011;55157;51.036;17.058;2023-11-22T03:02:45;37.97;;;23.05;;
68310;SDS011;55157;51.036;17.058;2023-11-22T03:05:11;33.17;;;23.48;;
68310;SDS011;55157;51.036;17.058;2023-11-22T03:07:36;35.90;;;23.50;;
68310;SDS011;55157;51.036;17.058;2023-11-22T03:10:01;36.00;;;23.08;;
68310;SDS011;55157;51.036;17.058;2023-11-22T03:12:27;34.42;;;24.02;;
68310;SDS011;55157;51.036;17.058;2023-11-22T03:14:53;37.72;;;23.42;;
68310;SDS011;55157;51.036;17.058;2023-11-22T03:17:18;34.35;;;23.35;;
68310;SDS011;55157;51.036;17.058;2023-11-22T03:19:44;34.95;;;23.48;;
68310;SDS011;55157;51.036;17.058;2023-11-22T03:22:09;35.80;;;23.67;;
68310;SDS011;55157;51.036;17.058;2023-11-22T03:24:34;37.63;;;25.40;;
68310;SDS011;55157;51.036;17.058;2023-11-22T03:26:59;34.35;;;23.23;;
68310;SDS011;55157;51.036;17.058;2023-11-22T03:29:25;34.35;;;25.02;;
68310;SDS011;55157;51.036;17.058;2023-11-22T03:31:51;40.65;;;26.88;;
68310;SDS011;55157;51.036;17.058;2023-11-22T03:34:17;40.00;;;24.98;;
68310;SDS011;55157;51.036;17.058;2023-11-22T03:36:42;34.08;;;24.10;;
68310;SDS011;55157;51.036;17.058;2023-11-22T03:39:07;36.58;;;24.42;;
68310;SDS011;55157;51.036;17.058;2023-11-22T03:41:32;34.10;;;22.83;;
68310;SDS011;55157;51.036;17.058;2023-11-22T03:43:58;37.28;;;24.10;;
68310;SDS011;55157;51.036;17.058;2023-11-22T03:46:23;33.92;;;24.42;;
68310;SDS011;55157;51.036;17.058;2023-11-22T03:48:50;42.38;;;25.58;;
68310;SDS011;55157;51.036;17.058;2023-11-22T03:51:15;35.50;;;22.33;;
68310;SDS011;55157;51.036;17.058;2023-11-22T03:53:40;36.65;;;22.92;;
68310;SDS011;55157;51.036;17.058;2023-11-22T03:56:06;32.83;;;23.45;;
68310;SDS011;55157;51.036;17.058;2023-11-22T03:58:31;32.28;;;24.05;;
68310;SDS011;55157;51.036;17.058;2023-11-22T04:00:57;31.95;;;22.52;;
68310;SDS011;55157;51.036;17.058;2023-11-22T04:03:22;31.33;;;23.08;;
68310;SDS011;55157;51.036;17.058;2023-11-22T04:05:49;27.90;;;21.25;;
68310;SDS011;55157;51.036;17.058;2023-11-22T04:08:14;28.77;;;20.48;;
68310;SDS011;55157;51.036;17.058;2023-11-22T04:10:39;30.00;;;21.05;;
68310;SDS011;55157;51.036;17.058;2023-11-22T04:13:05;28.90;;;21.10;;
68310;SDS011;55157;51.036;17.058;2023-11-22T04:15:30;31.02;;;20.35;;
68310;SDS011;55157;51.036;17.058;2023-11-22T04:17:55;33.65;;;21.85;;
68310;SDS011;55157;51.036;17.058;2023-11-22T04:20:20;32.47;;;20.67;;
68310;SDS011;55157;51.036;17.058;2023-11-22T04:22:47;27.52;;;20.90;;
68310;SDS011;55157;51.036;17.058;2023-11-22T04:25:12;28.23;;;19.42;;
68310;SDS011;55157;51.036;17.058;2023-11-22T04:27:37;29.75;;;20.40;;
68310;SDS011;55157;51.036;17.058;2023-11-22T04:30:03;29.20;;;20.65;;
68310;SDS011;55157;51.036;17.058;2023-11-22T04:32:28;32.65;;;21.85;;
68310;SDS011;55157;51.036;17.058;2023-11-22T04:34:54;30.75;;;20.40;;
68310;SDS011;55157;51.036;17.058;2023-11-22T04:37:19;26.08;;;18.23;;
68310;SDS011;55157;51.036;17.058;2023-11-22T04:39:46;28.58;;;16.17;;
68310;SDS011;55157;51.036;17.058;2023-11-22T04:42:11;22.48;;;16.10;;
68310;SDS011;55157;51.036;17.058;2023-11-22T04:44:36;23.65;;;16.77;;
68310;SDS011;55157;51.036;17.058;2023-11-22T04:47:01;28.30;;;17.55;;
68310;SDS011;55157;51.036;17.058;2023-11-22T04:49:27;24.25;;;15.55;;
68310;SDS011;55157;51.036;17.058;2023-11-22T04:51:52;25.85;;;15.75;;
68310;SDS011;55157;51.036;17.058;2023-11-22T04:54:17;21.02;;;14.73;;
68310;SDS011;55157;51.036;17.058;2023-11-22T04:56:44;21.88;;;14.95;;
68310;SDS011;55157;51.036;17.058;2023-11-22T04:59:09;19.23;;;13.50;;
68310;SDS011;55157;51.036;17.058;2023-11-22T05:01:34;21.25;;;14.05;;
68310;SDS011;55157;51.036;17.058;2023-11-22T05:04:00;21.98;;;14.00;;
68310;SDS011;55157;51.036;17.058;2023-11-22T05:06:25;22.65;;;13.77;;
68310;SDS011;55157;51.036;17.058;2023-11-22T05:08:51;21.73;;;13.70;;
68310;SDS011;55157;51.036;17.058;2023-11-22T05:11:16;24.60;;;14.85;;
68310;SDS011;55157;51.036;17.058;2023-11-22T05:13:42;19.05;;;13.15;;
68310;SDS011;55157;51.036;17.058;2023-11-22T05:16:08;23.33;;;13.77;;
68310;SDS011;55157;51.036;17.058;2023-11-22T05:18:33;17.85;;;12.30;;
68310;SDS011;55157;51.036;17.058;2023-11-22T05:20:59;19.38;;;12.63;;
68310;SDS011;55157;51.036;17.058;2023-11-22T05:23:24;23.63;;;13.43;;
68310;SDS011;55157;51.036;17.058;2023-11-22T05:25:49;20.80;;;13.35;;
68310;SDS011;55157;51.036;17.058;2023-11-22T05:28:14;22.25;;;13.82;;
68310;SDS011;55157;51.036;17.058;2023-11-22T05:30:41;22.60;;;15.38;;
68310;SDS011;55157;51.036;17.058;2023-11-22T05:33:06;24.85;;;14.05;;
68310;SDS011;55157;51.036;17.058;2023-11-22T05:35:32;19.55;;;13.75;;
68310;SDS011;55157;51.036;17.058;2023-11-22T05:37:57;23.02;;;14.93;;
68310;SDS011;55157;51.036;17.058;2023-11-22T05:40:22;20.67;;;14.38;;
68310;SDS011;55157;51.036;17.058;2023-11-22T05:42:47;29.15;;;14.65;;
68310;SDS011;55157;51.036;17.058;2023-11-22T05:45:13;22.33;;;14.38;;
68310;SDS011;55157;51.036;17.058;2023-11-22T05:47:39;26.63;;;15.57;;
68310;SDS011;55157;51.036;17.058;2023-11-22T05:50:05;31.52;;;17.10;;
68310;SDS011;55157;51.036;17.058;2023-11-22T05:52:30;29.90;;;15.75;;
68310;SDS011;55157;51.036;17.058;2023-11-22T05:54:56;24.48;;;15.93;;
68310;SDS011;55157;51.036;17.058;2023-11-22T05:57:21;28.73;;;15.50;;
68310;SDS011;55157;51.036;17.058;2023-11-22T05:59:46;35.97;;;18.15;;
68310;SDS011;55157;51.036;17.058;2023-11-22T06:02:11;31.58;;;18.20;;
68310;SDS011;55157;51.036;17.058;2023-11-22T06:04:38;37.03;;;20.35;;
68310;SDS011;55157;51.036;17.058;2023-11-22T06:07:03;28.73;;;18.10;;
68310;SDS011;55157;51.036;17.058;2023-11-22T06:09:29;28.73;;;16.45;;
68310;SDS011;55157;51.036;17.058;2023-11-22T06:11:54;25.90;;;16.15;;
68310;SDS011;55157;51.036;17.058;2023-11-22T06:14:19;25.77;;;16.85;;
68310;SDS011;55157;51.036;17.058;2023-11-22T06:16:44;25.20;;;15.45;;
68310;SDS011;55157;51.036;17.058;2023-11-22T06:19:10;29.20;;;17.00;;
68310;SDS011;55157;51.036;17.058;2023-11-22T06:21:36;24.77;;;16.20;;
68310;SDS011;55157;51.036;17.058;2023-11-22T06:24:02;28.52;;;14.93;;
68310;SDS011;55157;51.036;17.058;2023-11-22T06:26:27;28.45;;;14.95;;
68310;SDS011;55157;51.036;17.058;2023-11-22T06:28:52;36.72;;;18.52;;
68310;SDS011;55157;51.036;17.058;2023-11-22T06:31:17;31.92;;;19.35;;
68310;SDS011;55157;51.036;17.058;2023-11-22T06:33:43;30.00;;;17.40;;
68310;SDS011;55157;51.036;17.058;2023-11-22T06:36:08;23.40;;;15.35;;
68310;SDS011;55157;51.036;17.058;2023-11-22T06:38:35;30.40;;;17.85;;
68310;SDS011;55157;51.036;17.058;2023-11-22T06:41:00;28.17;;;17.85;;
68310;SDS011;55157;51.036;17.058;2023-11-22T06:43:25;35.17;;;21.42;;
68310;SDS011;55157;51.036;17.058;2023-11-22T06:45:50;35.03;;;21.02;;
68310;SDS011;55157;51.036;17.058;2023-11-22T06:48:16;31.75;;;19.17;;
68310;SDS011;55157;51.036;17.058;2023-11-22T06:50:41;31.83;;;21.67;;
68310;SDS011;55157;51.036;17.058;2023-11-22T06:53:06;32.90;;;22.30;;
68310;SDS011;55157;51.036;17.058;2023-11-22T06:55:33;45.95;;;25.52;;
68310;SDS011;55157;51.036;17.058;2023-11-22T06:57:58;37.47;;;22.23;;
68310;SDS011;55157;51.036;17.058;2023-11-22T07:00:24;32.85;;;21.25;;
68310;SDS011;55157;51.036;17.058;2023-11-22T07:02:49;38.35;;;21.77;;
68310;SDS011;55157;51.036;17.058;2023-11-22T07:05:14;44.28;;;22.17;;
68310;SDS011;55157;51.036;17.058;2023-11-22T07:07:39;35.75;;;20.80;;
68310;SDS011;55157;51.036;17.058;2023-11-22T07:10:05;40.47;;;19.83;;
68310;SDS011;55157;51.036;17.058;2023-11-22T07:12:32;42.00;;;19.35;;
68310;SDS011;55157;51.036;17.058;2023-11-22T07:14:57;30.70;;;17.42;;
68310;SDS011;55157;51.036;17.058;2023-11-22T07:17:22;28.23;;;16.85;;
68310;SDS011;55157;51.036;17.058;2023-11-22T07:19:48;30.38;;;19.50;;
68310;SDS011;55157;51.036;17.058;2023-11-22T07:22:13;36.70;;;21.75;;
68310;SDS011;55157;51.036;17.058;2023-11-22T07:24:38;33.88;;;21.90;;
68310;SDS011;55157;51.036;17.058;2023-11-22T07:27:04;26.90;;;15.77;;
68310;SDS011;55157;51.036;17.058;2023-11-22T07:29:30;25.80;;;14.32;;
68310;SDS011;55157;51.036;17.058;2023-11-22T07:31:56;20.90;;;12.93;;
68310;SDS011;55157;51.036;17.058;2023-11-22T07:34:21;27.85;;;14.65;;
68310;SDS011;55157;51.036;17.058;2023-11-22T07:36:46;30.17;;;17.98;;
68310;SDS011;55157;51.036;17.058;2023-11-22T07:39:11;27.15;;;13.85;;
68310;SDS011;55157;51.036;17.058;2023-11-22T07:41:37;22.02;;;12.98;;
68310;SDS011;55157;51.036;17.058;2023-11-22T07:44:02;26.80;;;13.68;;
68310;SDS011;55157;51.036;17.058;2023-11-22T07:46:29;19.33;;;11.82;;
68310;SDS011;55157;51.036;17.058;2023-11-22T07:48:55;23.13;;;12.25;;
68310;SDS011;55157;51.036;17.058;2023-11-22T07:51:20;19.88;;;11.93;;
68310;SDS011;55157;51.036;17.058;2023-11-22T07:53:46;21.23;;;11.60;;
68310;SDS011;55157;51.036;17.058;2023-11-22T07:56:11;22.95;;;13.05;;
68310;SDS011;55157;51.036;17.058;2023-11-22T07:58:36;27.42;;;13.13;;
68310;SDS011;55157;51.036;17.058;2023-11-22T08:01:01;29.85;;;14.05;;
68310;SDS011;55157;51.036;17.058;2023-11-22T08:03:28;23.30;;;13.27;;
68310;SDS011;55157;51.036;17.058;2023-11-22T08:05:53;22.40;;;13.27;;
68310;SDS011;55157;51.036;17.058;2023-11-22T08:08:19;27.42;;;15.23;;
68310;SDS011;55157;51.036;17.058;2023-11-22T08:10:44;30.40;;;14.27;;
68310;SDS011;55157;51.036;17.058;2023-11-22T08:13:09;28.40;;;16.48;;
68310;SDS011;55157;51.036;17.058;2023-11-22T08:15:35;21.27;;;13.75;;
68310;SDS011;55157;51.036;17.058;2023-11-22T08:18:00;23.73;;;12.50;;
68310;SDS011;55157;51.036;17.058;2023-11-22T08:20:26;29.35;;;15.18;;
68310;SDS011;55157;51.036;17.058;2023-11-22T08:22:52;29.50;;;16.02;;
68310;SDS011;55157;51.036;17.058;2023-11-22T08:25:17;27.85;;;15.70;;
68310;SDS011;55157;51.036;17.058;2023-11-22T08:27:42;24.63;;;13.52;;
68310;SDS011;55157;51.036;17.058;2023-11-22T08:30:08;23.83;;;12.77;;
68310;SDS011;55157;51.036;17.058;2023-11-22T08:32:33;26.38;;;16.25;;
68310;SDS011;55157;51.036;17.058;2023-11-22T08:34:59;32.28;;;17.40;;
68310;SDS011;55157;51.036;17.058;2023-11-22T08:37:25;26.08;;;15.30;;
68310;SDS011;55157;51.036;17.058;2023-11-22T08:39:51;18.25;;;11.63;;
68310;SDS011;55157;51.036;17.058;2023-11-22T08:42:16;19.30;;;10.98;;
68310;SDS011;55157;51.036;17.058;2023-11-22T08:44:41;31.80;;;16.42;;
68310;SDS011;55157;51.036;17.058;2023-11-22T08:47:06;31.27;;;18.02;;
68310;SDS011;55157;51.036;17.058;2023-11-22T08:49:33;26.38;;;15.70;;
68310;SDS011;55157;51.036;17.058;2023-11-22T08:51:58;38.53;;;21.90;;
68310;SDS011;55157;51.036;17.058;2023-11-22T08:54:25;34.55;;;19.92;;
68310;SDS011;55157;51.036;17.058;2023-11-22T08:56:50;50.38;;;26.25;;
68310;SDS011;55157;51.036;17.058;2023-11-22T08:59:16;33.40;;;19.85;;
68310;SDS011;55157;51.036;17.058;2023-11-22T09:01:41;30.75;;;17.55;;
68310;SDS011;55157;51.036;17.058;2023-11-22T09:04:06;40.95;;;22.83;;
68310;SDS011;55157;51.036;17.058;2023-11-22T09:06:31;37.05;;;22.75;;
68310;SDS011;55157;51.036;17.058;2023-11-22T09:08:57;32.47;;;20.33;;
68310;SDS011;55157;51.036;17.058;2023-11-22T09:11:23;29.05;;;18.10;;
68310;SDS011;55157;51.036;17.058;2023-11-22T09:13:48;26.65;;;17.27;;
68310;SDS011;55157;51.036;17.058;2023-11-22T09:16:14;26.77;;;17.70;;
68310;SDS011;55157;51.036;17.058;2023-11-22T09:18:39;26.17;;;16.65;;
68310;SDS011;55157;51.036;17.058;2023-11-22T09:21:04;34.35;;;21.30;;
68310;SDS011;55157;51.036;17.058;2023-11-22T09:23:30;35.83;;;22.83;;
68310;SDS011;55157;51.036;17.058;2023-11-22T09:25:55;38.95;;;22.90;;
68310;SDS011;55157;51.036;17.058;2023-11-22T09:28:22;33.15;;;19.55;;
68310;SDS011;55157;51.036;17.058;2023-11-22T09:30:47;27.48;;;17.55;;
68310;SDS011;55157;51.036;17.058;2023-11-22T09:33:13;30.33;;;18.30;;
68310;SDS011;55157;51.036;17.058;2023-11-22T09:35:38;30.05;;;17.88;;
68310;SDS011;55157;51.036;17.058;2023-11-22T09:38:04;27.02;;;16.85;;
68310;SDS011;55157;51.036;17.058;2023-11-22T09:40:30;28.40;;;15.32;;
68310;SDS011;55157;51.036;17.058;2023-11-22T09:42:55;26.90;;;14.52;;
68310;SDS011;55157;51.036;17.058;2023-11-22T09:45:22;26.77;;;16.13;;
68310;SDS011;55157;51.036;17.058;2023-11-22T09:47:47;23.90;;;16.23;;
68310;SDS011;55157;51.036;17.058;2023-11-22T09:50:13;21.75;;;15.05;;
68310;SDS011;55157;51.036;17.058;2023-11-22T09:52:42;20.33;;;14.23;;
68310;SDS011;55157;51.036;17.058;2023-11-22T09:55:08;22.48;;;15.02;;
68310;SDS011;55157;51.036;17.058;2023-11-22T09:57:34;20.65;;;14.45;;
68310;SDS011;55157;51.036;17.058;2023-11-22T10:00:01;18.95;;;12.98;;
68310;SDS011;55157;51.036;17.058;2023-11-22T10:02:28;17.63;;;11.90;;
68310;SDS011;55157;51.036;17.058;2023-11-22T10:04:53;18.35;;;13.45;;
68310;SDS011;55157;51.036;17.058;2023-11-22T10:07:18;18.05;;;12.55;;
68310;SDS011;55157;51.036;17.058;2023-11-22T10:09:43;17.13;;;11.70;;
68310;SDS011;55157;51.036;17.058;2023-11-22T10:12:08;18.85;;;12.32;;
68310;SDS011;55157;51.036;17.058;2023-11-22T10:14:36;23.00;;;14.52;;
68310;SDS011;55157;51.036;17.058;2023-11-22T10:17:02;21.42;;;12.38;;
68310;SDS011;55157;51.036;17.058;2023-11-22T10:19:28;16.80;;;12.90;;
68310;SDS011;55157;51.036;17.058;2023-11-22T10:22:03;17.55;;;12.57;;
68310;SDS011;55157;51.036;17.058;2023-11-22T10:24:30;19.30;;;12.20;;
68310;SDS011;55157;51.036;17.058;2023-11-22T10:26:55;18.67;;;12.48;;
68310;SDS011;55157;51.036;17.058;2023-11-22T10:29:20;24.95;;;15.00;;
68310;SDS011;55157;51.036;17.058;2023-11-22T10:31:46;41.03;;;20.23;;
68310;SDS011;55157;51.036;17.058;2023-11-22T10:34:11;24.95;;;12.60;;
68310;SDS011;55157;51.036;17.058;2023-11-22T10:36:38;20.38;;;11.85;;
68310;SDS011;55157;51.036;17.058;2023-11-22T10:39:03;15.32;;;11.52;;
68310;SDS011;55157;51.036;17.058;2023-11-22T10:41:28;17.40;;;12.65;;
68310;SDS011;55157;51.036;17.058;2023-11-22T10:43:54;17.85;;;11.82;;
68310;SDS011;55157;51.036;17.058;2023-11-22T10:46:19;19.55;;;13.02;;
68310;SDS011;55157;51.036;17.058;2023-11-22T10:48:44;17.63;;;12.05;;
68310;SDS011;55157;51.036;17.058;2023-11-22T10:51:10;17.05;;;10.52;;
68310;SDS011;55157;51.036;17.058;2023-11-22T10:53:42;15.00;;;11.35;;
68310;SDS011;55157;51.036;17.058;2023-11-22T10:56:12;15.82;;;10.38;;
68310;SDS011;55157;51.036;17.058;2023-11-22T10:58:37;15.60;;;10.68;;
68310;SDS011;55157;51.036;17.058;2023-11-22T11:01:07;11.48;;;7.90;;
68310;SDS011;55157;51.036;17.058;2023-11-22T11:03:33;15.52;;;10.23;;
68310;SDS011;55157;51.036;17.058;2023-11-22T11:06:02;13.88;;;9.73;;
68310;SDS011;55157;51.036;17.058;2023-11-22T11:08:28;16.08;;;10.23;;
68310;SDS011;55157;51.036;17.058;2023-11-22T11:10:55;13.20;;;8.60;;
68310;SDS011;55157;51.036;17.058;2023-11-22T11:13:20;11.57;;;7.88;;
68310;SDS011;55157;51.036;17.058;2023-11-22T11:15:45;13.18;;;8.82;;
68310;SDS011;55157;51.036;17.058;2023-11-22T11:18:12;9.65;;;7.50;;
68310;SDS011;55157;51.036;17.058;2023-11-22T11:20:44;14.50;;;8.55;;
68310;SDS011;55157;51.036;17.058;2023-11-22T11:23:11;11.18;;;6.97;;
68310;SDS011;55157;51.036;17.058;2023-11-22T11:25:36;9.88;;;8.05;;
68310;SDS011;55157;51.036;17.058;2023-11-22T11:28:03;13.95;;;8.05;;
68310;SDS011;55157;51.036;17.058;2023-11-22T11:33:12;12.88;;;8.32;;
68310;SDS011;55157;51.036;17.058;2023-11-22T11:35:38;12.27;;;8.63;;
68310;SDS011;55157;51.036;17.058;2023-11-22T11:38:03;19.00;;;9.23;;
68310;SDS011;55157;51.036;17.058;2023-11-22T11:40:31;12.75;;;9.43;;
68310;SDS011;55157;51.036;17.058;2023-11-22T11:42:56;17.75;;;11.45;;
68310;SDS011;55157;51.036;17.058;2023-11-22T11:45:23;15.70;;;11.40;;
68310;SDS011;55157;51.036;17.058;2023-11-22T11:47:48;21.88;;;14.00;;
68310;SDS011;55157;51.036;17.058;2023-11-22T11:50:14;20.38;;;13.93;;
68310;SDS011;55157;51.036;17.058;2023-11-22T11:52:39;21.67;;;14.82;;
68310;SDS011;55157;51.036;17.058;2023-11-22T11:55:05;23.17;;;14.93;;
68310;SDS011;55157;51.036;17.058;2023-11-22T11:57:30;17.67;;;12.95;;
68310;SDS011;55157;51.036;17.058;2023-11-22T11:59:56;19.30;;;13.25;;
68310;SDS011;55157;51.036;17.058;2023-11-22T12:02:22;19.10;;;13.30;;
68310;SDS011;55157;51.036;17.058;2023-11-22T12:04:48;24.67;;;14.25;;
68310;SDS011;55157;51.036;17.058;2023-11-22T12:07:13;21.88;;;13.77;;
68310;SDS011;55157;51.036;17.058;2023-11-22T12:09:38;20.13;;;13.70;;
68310;SDS011;55157;51.036;17.058;2023-11-22T12:12:04;16.58;;;12.30;;
68310;SDS011;55157;51.036;17.058;2023-11-22T12:14:29;19.10;;;13.63;;
68310;SDS011;55157;51.036;17.058;2023-11-22T12:16:54;21.10;;;14.35;;
68310;SDS011;55157;51.036;17.058;2023-11-22T12:19:22;18.17;;;12.57;;
68310;SDS011;55157;51.036;17.058;2023-11-22T12:21:47;17.38;;;12.57;;
68310;SDS011;55157;51.036;17.058;2023-11-22T12:24:13;17.15;;;12.20;;
68310;SDS011;55157;51.036;17.058;2023-11-22T12:26:39;20.25;;;12.38;;
68310;SDS011;55157;51.036;17.058;2023-11-22T12:29:05;23.73;;;13.07;;
68310;SDS011;55157;51.036;17.058;2023-11-22T12:31:30;21.80;;;13.40;;
68310;SDS011;55157;51.036;17.058;2023-11-22T12:33:56;21.30;;;12.90;;
68310;SDS011;55157;51.036;17.058;2023-11-22T12:36:23;24.80;;;14.80;;
68310;SDS011;55157;51.036;17.058;2023-11-22T12:38:48;34.25;;;16.00;;
68310;SDS011;55157;51.036;17.058;2023-11-22T12:41:14;23.77;;;14.70;;
68310;SDS011;55157;51.036;17.058;2023-11-22T12:43:39;24.17;;;15.73;;
68310;SDS011;55157;51.036;17.058;2023-11-22T12:46:05;24.50;;;14.70;;
68310;SDS011;55157;51.036;17.058;2023-11-22T12:48:30;21.48;;;14.05;;
68310;SDS011;55157;51.036;17.058;2023-11-22T12:50:55;20.08;;;12.90;;
68310;SDS011;55157;51.036;17.058;2023-11-22T12:53:23;22.17;;;13.95;;
68310;SDS011;55157;51.036;17.058;2023-11-22T12:55:48;19.92;;;14.38;;
68310;SDS011;55157;51.036;17.058;2023-11-22T12:58:14;20.15;;;12.88;;
68310;SDS011;55157;51.036;17.058;2023-11-22T13:00:39;21.70;;;15.40;;
68310;SDS011;55157;51.036;17.058;2023-11-22T13:03:05;24.70;;;13.80;;
68310;SDS011;55157;51.036;17.058;2023-11-22T13:05:30;22.67;;;13.60;;
68310;SDS011;55157;51.036;17.058;2023-11-22T13:07:56;22.90;;;14.30;;
68310;SDS011;55157;51.036;17.058;2023-11-22T13:10:22;18.35;;;13.02;;
68310;SDS011;55157;51.036;17.058;2023-11-22T13:12:48;20.27;;;12.88;;
68310;SDS011;55157;51.036;17.058;2023-11-22T13:15:13;22.23;;;13.57;;
68310;SDS011;55157;51.036;17.058;2023-11-22T13:17:38;16.80;;;12.63;;
68310;SDS011;55157;51.036;17.058;2023-11-22T13:20:05;15.90;;;11.38;;
68310;SDS011;55157;51.036;17.058;2023-11-22T13:22:31;16.20;;;11.23;;
68310;SDS011;55157;51.036;17.058;2023-11-22T13:24:56;15.55;;;11.75;;
68310;SDS011;55157;51.036;17.058;2023-11-22T13:27:23;17.48;;;12.73;;
68310;SDS011;55157;51.036;17.058;2023-11-22T13:29:48;15.27;;;11.05;;
68310;SDS011;55157;51.036;17.058;2023-11-22T13:32:13;16.30;;;12.35;;
68310;SDS011;55157;51.036;17.058;2023-11-22T13:34:38;19.50;;;12.40;;
68310;SDS011;55157;51.036;17.058;2023-11-22T13:37:04;18.48;;;13.52;;
68310;SDS011;55157;51.036;17.058;2023-11-22T13:39:29;17.75;;;11.38;;
68310;SDS011;55157;51.036;17.058;2023-11-22T13:41:54;20.42;;;12.05;;
68310;SDS011;55157;51.036;17.058;2023-11-22T13:44:21;18.73;;;12.18;;
68310;SDS011;55157;51.036;17.058;2023-11-22T13:46:46;15.40;;;11.27;;
68310;SDS011;55157;51.036;17.058;2023-11-22T13:49:11;17.45;;;12.32;;
68310;SDS011;55157;51.036;17.058;2023-11-22T13:51:36;17.17;;;11.63;;
68310;SDS011;55157;51.036;17.058;2023-11-22T13:54:02;14.60;;;11.50;;
68310;SDS011;55157;51.036;17.058;2023-11-22T13:56:27;18.23;;;11.80;;
68310;SDS011;55157;51.036;17.058;2023-11-22T13:58:52;17.73;;;10.95;;
68310;SDS011;55157;51.036;17.058;2023-11-22T14:01:19;15.38;;;11.02;;